KCHO/CHO METAR and TAF weather

Enter ICAO airport designator
Station Type Date Time Source
KCHO METAR 2019/08/22 01:53 UTC NOAA

KCHO 220153Z 00000KT 10SM CLR 28/22 A2993 RMK AO2 SLP124 T02830217


Station Type Date Time Source
KCHO Decoded METAR 2019/08/22 01:53 UTC NOAA

Station name not available
Aug 21, 2019 - 09:53 PM EDT / 2019.08.22 0153 UTC
Wind: Calm:0
Visibility: 10 mile(s):0
Sky conditions: clear
Temperature: 82.9 F (28.3 C)
Dew Point: 71.1 F (21.7 C)
Relative Humidity: 67%
Pressure (altimeter): 29.93 in. Hg (1013 hPa)
ob: KCHO 220153Z 00000KT 10SM CLR 28/22 A2993 RMK AO2 SLP124 T02830217
cycle: 2

Station Type Date Time Source
KCHO TAF 2019/08/21 18:22 UTC NOAA

TAF KCHO 211720Z 2118/2218 20008KT P6SM BKN090
FM211900 21007KT P6SM VCTS BKN050CB
FM212300 23006KT P6SM SCT060
FM220500 VRB03KT P6SM FEW250
FM220900 00000KT 6SM BR FEW250
FM221200 21004KT P6SM SCT045

Example: see airport list